Runge, Texas
Current Conditions -  °F | °C
As of 4:35 AM on Monday 22 Dec 2014 (Local Time) from KBEA Reporting Station
Haze Haze  
Wind Chill: 59°   Ceiling: 600
Heat Index: 59°   Visibility: 4mi
Dew Point: 59°   Wind: 7mph
Humidity: 100%   Direction: 190°S
Pressure: 29.77"   Gusts: NA
Location:  28.88°N, 97.71°W
Report Text: KBEA 221035Z AUTO 19006KT 4SM BR OVC006 15/15 A2977 RMK AO2 T01520152
Loading
Personal Weather Stations






























Interactive Weather Map New forecast layout! Learn more

10-Day Weather Forecast

Advertisements
Track Severe Weather on mobile